MMLP/LAP METAR and TAF weather

Enter ICAO airport designator
Station Type Date Time Source
MMLP METAR 2020/01/20 05:40 UTC NOAA

MMLP 200540Z 00000KT 10SM SKC 13/10 A3007 RMK SLP181 52008 902 ISOL CI


Station Type Date Time Source
MMLP Decoded METAR 2020/01/20 05:40 UTC NOAA

La Paz International Airport, Mexico (MMLP) 24-04N 110-22W
Jan 20, 2020 - 12:40 AM EST / 2020.01.20 0540 UTC
Wind: Calm:0
Visibility: 10 mile(s):0
Sky conditions: clear
Temperature: 55 F (13 C)
Dew Point: 50 F (10 C)
Relative Humidity: 81%
Pressure (altimeter): 30.07 in. Hg (1018 hPa)
Pressure tendency: 0.02 inches (0.8 hPa) higher than three hours ago
ob: MMLP 200540Z 00000KT 10SM SKC 13/10 A3007 RMK SLP181 52008 902 ISOL CI
cycle: 5

Station Type Date Time Source
MMLP TAF 2020/01/20 06:53 UTC NOAA

TAF MMLP 200346Z 2006/2106 01005KT P6SM SKC
FM201800 36015KT P6SM SCT080 BKN250
FM210500 03005KT P6SM SKC

Example: see airport list